createdAt,value
2018-12-13T00:01:27.905Z,28.44
2018-12-13T00:07:22.923Z,28.03
2018-12-13T00:13:17.931Z,28.7
2018-12-13T00:19:12.885Z,24.61
2018-12-13T00:25:07.906Z,23.29
2018-12-13T00:31:02.908Z,24.6
2018-12-13T00:36:57.892Z,23.8
2018-12-13T00:42:52.931Z,22.07
2018-12-13T00:48:47.925Z,18.12
2018-12-13T00:54:42.960Z,23.14
2018-12-13T01:00:37.957Z,20.37
2018-12-13T01:06:32.931Z,30.7
2018-12-13T01:12:27.930Z,30.41
2018-12-13T01:18:22.992Z,31.2
2018-12-13T01:24:17.947Z,31.57
2018-12-13T01:30:12.932Z,31.46
2018-12-13T01:36:07.955Z,29.57
2018-12-13T01:42:02.964Z,28.43
2018-12-13T01:47:57.972Z,29.71
2018-12-13T01:53:52.960Z,29.67
2018-12-13T01:59:47.934Z,28.45
2018-12-13T02:05:42.966Z,26.46
2018-12-13T02:11:37.978Z,24.78
2018-12-13T02:17:32.952Z,24.01
2018-12-13T02:23:27.958Z,21.2
2018-12-13T02:29:22.999Z,19.66
2018-12-13T02:35:17.970Z,19.29
2018-12-13T02:41:12.981Z,17.62
2018-12-13T02:47:07.969Z,16.79
2018-12-13T02:53:02.963Z,9.82
2018-12-13T02:58:57.993Z,8.13
2018-12-13T03:04:53.024Z,5.29
2018-12-13T03:10:48.026Z,4.81
2018-12-13T03:16:42.964Z,4.3
2018-12-13T03:22:38.067Z,2.79
2018-12-13T03:28:32.980Z,3.39
2018-12-13T03:34:28.000Z,2.64
2018-12-13T03:40:22.989Z,1.97
2018-12-13T03:46:17.999Z,1.92
2018-12-13T03:52:13.032Z,1.99
2018-12-13T03:58:07.993Z,1.87
2018-12-13T04:04:03.025Z,1.46
2018-12-13T04:09:58.066Z,1.34
2018-12-13T04:15:52.997Z,1.32
2018-12-13T04:21:48.051Z,1.45
2018-12-13T04:27:43.037Z,1.34
2018-12-13T04:33:38.017Z,1.6
2018-12-13T04:39:33.056Z,5.9
2018-12-13T04:45:28.033Z,8.44
2018-12-13T04:51:23.065Z,7.91
2018-12-13T04:57:18.027Z,9.97
2018-12-13T05:03:13.048Z,17.91
2018-12-13T05:09:08.054Z,9.03
2018-12-13T05:15:03.042Z,7.27
2018-12-13T05:20:58.047Z,6.99
2018-12-13T05:26:53.092Z,13.6
2018-12-13T05:32:48.047Z,9.61
2018-12-13T05:38:43.092Z,13.61
2018-12-13T05:44:38.042Z,17.15
2018-12-13T05:50:33.070Z,18.14
2018-12-13T05:56:28.086Z,16.71
2018-12-13T06:02:23.126Z,15.52
2018-12-13T06:08:18.071Z,14.61
2018-12-13T06:14:13.075Z,15.62
2018-12-13T06:20:08.082Z,14.49
2018-12-13T06:26:03.155Z,14.66
2018-12-13T06:31:58.099Z,16.02
2018-12-13T06:37:53.135Z,17.32
2018-12-13T06:43:48.106Z,15.73
2018-12-13T06:49:43.109Z,16.28
2018-12-13T06:55:38.093Z,15.27
2018-12-13T07:01:33.095Z,16.57
2018-12-13T07:07:28.131Z,10.82
2018-12-13T07:13:23.107Z,11.19
2018-12-13T07:19:18.135Z,10.9
2018-12-13T07:25:13.117Z,12.45
2018-12-13T07:31:08.129Z,6.19
2018-12-13T07:37:03.150Z,15.6
2018-12-13T07:42:58.127Z,15
2018-12-13T07:48:56.312Z,16.75
2018-12-13T07:54:48.108Z,17.19
2018-12-13T08:00:43.121Z,16.53
2018-12-13T08:06:38.129Z,16.08
2018-12-13T08:12:33.151Z,14.73
2018-12-13T08:18:28.159Z,14.31
2018-12-13T08:24:23.131Z,14.69
2018-12-13T08:30:18.153Z,15.58
2018-12-13T08:36:13.150Z,15.43
2018-12-13T08:42:08.143Z,16.3
2018-12-13T08:48:03.168Z,14.55
2018-12-13T08:53:58.135Z,14.77
2018-12-13T08:59:53.151Z,13.75
2018-12-13T09:05:48.180Z,13.44
2018-12-13T09:11:43.153Z,14.64
2018-12-13T09:17:38.154Z,7.05
2018-12-13T09:23:33.197Z,2.21
2018-12-13T09:29:28.174Z,2.4
2018-12-13T09:35:23.170Z,2.24
2018-12-13T09:41:18.243Z,2.79
2018-12-13T09:47:13.193Z,2.33
2018-12-13T09:53:08.171Z,6.04
2018-12-13T09:59:03.174Z,3.88
2018-12-13T10:04:58.184Z,3.87
2018-12-13T10:10:53.192Z,3.84
2018-12-13T10:16:48.240Z,4.25
2018-12-13T10:22:43.196Z,4.44
2018-12-13T10:28:38.250Z,3.7
2018-12-13T10:34:33.192Z,4.54
2018-12-13T10:40:28.231Z,4.3
2018-12-13T10:46:23.248Z,4.13
2018-12-13T10:52:18.217Z,5.12
2018-12-13T10:58:13.213Z,5.25
2018-12-13T11:04:08.239Z,16.85
2018-12-13T11:10:03.248Z,14.68
2018-12-13T11:15:58.213Z,12.7
2018-12-13T11:21:53.232Z,4.69
2018-12-13T11:27:48.205Z,4.51
2018-12-13T11:33:43.282Z,3.35
2018-12-13T11:39:38.258Z,4.8
2018-12-13T11:45:33.241Z,5.39
2018-12-13T11:51:28.309Z,5.45
2018-12-13T11:57:23.263Z,4.06
2018-12-13T12:03:18.269Z,3.75
2018-12-13T12:09:13.238Z,4.03
2018-12-13T12:15:08.259Z,2.89
2018-12-13T12:21:03.251Z,8.36
2018-12-13T12:26:58.291Z,3.81
2018-12-13T12:32:53.274Z,4.11
2018-12-13T12:38:48.287Z,2.8
2018-12-13T12:44:43.287Z,4.06
2018-12-13T12:50:38.275Z,3.99
2018-12-13T12:56:33.275Z,2.43
2018-12-13T13:02:28.339Z,2.08
2018-12-13T13:08:23.299Z,2.19
2018-12-13T13:14:18.285Z,2.82
2018-12-13T13:20:13.280Z,1.8
2018-12-13T13:26:08.270Z,2.17
2018-12-13T13:32:03.311Z,1.99
2018-12-13T13:37:58.345Z,2.38
2018-12-13T13:43:53.367Z,1.42
2018-12-13T13:49:48.348Z,1.2
2018-12-13T13:55:43.347Z,1.81
2018-12-13T14:01:38.382Z,1.18
2018-12-13T14:07:33.327Z,1.51
2018-12-13T14:13:28.306Z,1.39
2018-12-13T14:19:23.316Z,0.85
2018-12-13T14:25:18.298Z,1.35
2018-12-13T14:31:13.334Z,1.21
2018-12-13T14:37:08.351Z,1.07
2018-12-13T14:43:03.323Z,1.03
2018-12-13T14:48:58.339Z,0.9
2018-12-13T14:54:53.314Z,1.06
2018-12-13T15:00:48.339Z,0.98
2018-12-13T15:06:43.361Z,0.89
2018-12-13T15:12:38.338Z,0.88
2018-12-13T15:18:33.328Z,0.9
2018-12-13T15:24:28.358Z,0.87
2018-12-13T15:30:23.333Z,0.91
2018-12-13T15:36:18.358Z,0.82
2018-12-13T15:42:13.397Z,0.8
2018-12-13T15:48:08.372Z,0.9
2018-12-13T15:54:03.415Z,4.86
2018-12-13T15:59:58.416Z,10.02
2018-12-13T16:05:53.392Z,4.13
2018-12-13T16:11:48.425Z,5.69
2018-12-13T16:17:43.421Z,3.56
2018-12-13T16:23:38.396Z,2.93
2018-12-13T16:29:33.392Z,3.73
2018-12-13T16:35:28.395Z,2.62
2018-12-13T16:41:23.386Z,3.29
2018-12-13T16:47:18.406Z,2.97
2018-12-13T16:53:13.408Z,1.99
2018-12-13T16:59:08.411Z,2.43
2018-12-13T17:05:03.625Z,2.09
2018-12-13T17:10:58.409Z,3.73
2018-12-13T17:16:53.402Z,6.62
2018-12-13T17:22:48.416Z,3.13
2018-12-13T17:28:43.409Z,5.42
2018-12-13T17:34:38.429Z,2.26
2018-12-13T17:40:33.402Z,2.22
2018-12-13T17:46:28.432Z,4.3
2018-12-13T17:52:23.412Z,2.44
2018-12-13T17:58:18.466Z,2.45
2018-12-13T18:04:13.403Z,2.1
2018-12-13T18:10:08.437Z,1.99
2018-12-13T18:16:03.444Z,1.95
2018-12-13T18:21:59.658Z,1.97
2018-12-13T18:27:53.455Z,1.99
2018-12-13T18:33:48.491Z,4.22
2018-12-13T18:39:43.465Z,4.99
2018-12-13T18:45:38.464Z,14.37
2018-12-13T18:51:33.478Z,6.26
2018-12-13T18:57:28.485Z,4.82
2018-12-13T19:03:23.465Z,4.63
2018-12-13T19:09:18.471Z,4.52
2018-12-13T19:15:13.459Z,2.41
2018-12-13T19:21:08.463Z,3.56
2018-12-13T19:27:03.452Z,2.82
2018-12-13T19:32:58.472Z,2.43
2018-12-13T19:38:53.470Z,2.85
2018-12-13T19:44:48.479Z,5.84
2018-12-13T19:50:43.473Z,2.03
2018-12-13T19:56:38.481Z,2.25
2018-12-13T20:02:33.494Z,2.71
2018-12-13T20:08:28.492Z,2.1
2018-12-13T20:14:23.499Z,2.73
2018-12-13T20:20:18.501Z,2.05
2018-12-13T20:26:13.485Z,1.73
2018-12-13T20:32:08.525Z,1.53
2018-12-13T20:38:03.512Z,1.48
2018-12-13T20:43:58.518Z,1.33
2018-12-13T20:49:53.499Z,1.5
2018-12-13T20:55:48.513Z,1.61
2018-12-13T21:01:43.523Z,1.32
2018-12-13T21:07:38.515Z,1.52
2018-12-13T21:13:33.522Z,1.28
2018-12-13T21:19:28.533Z,1.52
2018-12-13T21:25:23.554Z,1.67
2018-12-13T21:31:18.540Z,1.43
2018-12-13T21:37:13.529Z,1.56
2018-12-13T21:43:08.549Z,1.33
2018-12-13T21:49:03.531Z,1.61
2018-12-13T21:54:58.602Z,1.57
2018-12-13T22:00:53.600Z,1.75
2018-12-13T22:06:48.538Z,1.3
2018-12-13T22:12:43.567Z,1.42
2018-12-13T22:18:38.580Z,1.83
2018-12-13T22:24:33.557Z,2.02
2018-12-13T22:30:28.574Z,2.25
2018-12-13T22:36:23.586Z,1.66
2018-12-13T22:42:18.555Z,2.02
2018-12-13T22:48:13.571Z,2.55
2018-12-13T22:54:08.603Z,2.28
2018-12-13T23:00:03.645Z,1.95
2018-12-13T23:05:58.576Z,1.73
2018-12-13T23:11:53.612Z,2.22
2018-12-13T23:17:48.601Z,2.16
2018-12-13T23:23:43.610Z,1.7
2018-12-13T23:29:38.638Z,1.53
2018-12-13T23:35:33.589Z,2.09
2018-12-13T23:41:28.593Z,2.2
2018-12-13T23:47:23.618Z,2.08
2018-12-13T23:53:18.586Z,1.7
2018-12-13T23:59:13.617Z,2.22
